Terminal Aerodrome Forecast
Issued by NWS Shreveport, LA

Home | Current Version | Previous Version | Text Only | Print | Product List | Glossary On
Versions: 1 2 3 4 5 6 7 8 9 10 11 12
000
FTUS44 KSHV 010533
TAFSHV
TAF
KSHV 010533Z 0106/0206 16004KT P6SM BKN250
     FM011600 19005KT P6SM SCT045 BKN200
     FM011900 16008KT P6SM VCTS SCT050CB OVC100
     FM012100 15007KT P6SM SCT050 BKN250
     FM020000 16006KT P6SM BKN100=

USA.gov is the U.S. government's official web portal to all federal, state and local government web resources and services.